createdAt,value
2019-03-04T00:02:29.956Z,18.65
2019-03-04T00:05:01.307Z,18.95
2019-03-04T00:07:32.958Z,18.10
2019-03-04T00:10:07.070Z,18.95
2019-03-04T00:12:38.430Z,17.48
2019-03-04T00:15:09.974Z,17.27
2019-03-04T00:17:42.925Z,16.93
2019-03-04T00:20:15.372Z,17.35
2019-03-04T00:22:46.789Z,16.62
2019-03-04T00:25:18.344Z,16.60
2019-03-04T00:27:52.581Z,16.37
2019-03-04T00:30:25.248Z,15.93
2019-03-04T00:32:57.002Z,15.45
2019-03-04T00:35:28.764Z,15.63
2019-03-04T00:38:00.268Z,16.60
2019-03-04T00:40:32.067Z,16.97
2019-03-04T00:43:03.337Z,16.25
2019-03-04T00:45:34.768Z,15.85
2019-03-04T00:48:07.138Z,17.95
2019-03-04T00:50:38.489Z,17.42
2019-03-04T00:53:09.986Z,17.40
2019-03-04T00:55:41.222Z,17.35
2019-03-04T00:58:12.727Z,16.52
2019-03-04T01:00:43.992Z,16.60
2019-03-04T01:03:15.343Z,16.75
2019-03-04T01:05:47.199Z,15.45
2019-03-04T01:08:18.385Z,16.10
2019-03-04T01:10:52.257Z,16.93
2019-03-04T01:13:25.721Z,16.65
2019-03-04T01:15:57.258Z,16.35
2019-03-04T01:18:28.693Z,16.97
2019-03-04T01:21:01.104Z,17.42
2019-03-04T01:23:34.224Z,16.32
2019-03-04T01:26:05.941Z,15.78
2019-03-04T01:28:37.342Z,16.10
2019-03-04T01:31:08.867Z,15.63
2019-03-04T01:33:40.440Z,14.98
2019-03-04T01:36:14.051Z,15.43
2019-03-04T01:38:46.527Z,15.83
2019-03-04T01:41:18.082Z,14.55
2019-03-04T01:43:57.208Z,14.70
2019-03-04T01:46:28.613Z,13.85
2019-03-04T01:48:59.995Z,14.20
2019-03-04T01:51:31.287Z,15.20
2019-03-04T01:54:03.664Z,15.30
2019-03-04T01:56:34.964Z,15.80
2019-03-04T01:59:06.444Z,16.15
2019-03-04T02:01:38.046Z,15.60
2019-03-04T02:04:10.260Z,14.80
2019-03-04T02:06:41.801Z,16.07
2019-03-04T02:09:13.539Z,16.12
2019-03-04T02:11:44.837Z,16.07
2019-03-04T02:14:17.537Z,16.37
2019-03-04T02:16:49.151Z,16.57
2019-03-04T02:19:20.319Z,18.00
2019-03-04T02:21:52.670Z,16.05
2019-03-04T02:24:25.260Z,16.20
2019-03-04T02:26:57.529Z,16.37
2019-03-04T02:29:32.256Z,17.57
2019-03-04T02:32:03.855Z,17.67
2019-03-04T02:34:35.575Z,17.40
2019-03-04T02:37:10.808Z,18.15
2019-03-04T02:39:42.975Z,18.12
2019-03-04T02:42:14.540Z,18.30
2019-03-04T02:44:49.053Z,16.77
2019-03-04T02:47:20.525Z,18.48
2019-03-04T02:49:52.158Z,16.97
2019-03-04T02:52:24.739Z,18.85
2019-03-04T02:54:57.009Z,20.12
2019-03-04T02:57:30.095Z,19.17
2019-03-04T03:00:02.789Z,19.32
2019-03-04T03:02:37.611Z,19.73
2019-03-04T03:05:09.985Z,19.48
2019-03-04T03:07:41.206Z,19.20
2019-03-04T03:10:15.079Z,20.25
2019-03-04T03:12:46.606Z,19.57
2019-03-04T03:15:19.786Z,21.17
2019-03-04T03:17:51.260Z,20.08
2019-03-04T03:20:22.618Z,19.55
2019-03-04T03:22:55.479Z,20.65
2019-03-04T03:25:26.823Z,20.92
2019-03-04T03:27:58.539Z,21.48
2019-03-04T03:30:33.345Z,20.70
2019-03-04T03:33:05.903Z,19.98
2019-03-04T03:35:41.370Z,21.33
2019-03-04T03:38:12.798Z,19.27
2019-03-04T03:40:44.042Z,20.48
2019-03-04T03:43:17.789Z,20.75
2019-03-04T03:45:49.746Z,21.73
2019-03-04T03:48:21.418Z,19.65
2019-03-04T03:50:57.247Z,18.70
2019-03-04T03:53:34.191Z,19.62
2019-03-04T03:56:05.854Z,18.65
2019-03-04T03:58:37.200Z,19.75
2019-03-04T04:01:08.541Z,19.30
2019-03-04T04:03:40.128Z,20.00
2019-03-04T04:06:11.554Z,21.33
2019-03-04T04:08:43.681Z,18.87
2019-03-04T04:11:16.212Z,20.62
2019-03-04T04:13:47.752Z,19.95
2019-03-04T04:16:21.091Z,20.50
2019-03-04T04:18:52.804Z,19.55
2019-03-04T04:21:24.060Z,20.70
2019-03-04T04:24:06.782Z,20.70
2019-03-04T04:26:38.224Z,20.77
2019-03-04T04:29:18.029Z,19.92
2019-03-04T04:31:50.867Z,18.98
2019-03-04T04:34:22.527Z,21.45
2019-03-04T04:36:54.168Z,21.17
2019-03-04T04:39:25.995Z,21.75
2019-03-04T04:41:58.333Z,22.25
2019-03-04T04:44:29.749Z,22.45
2019-03-04T04:47:01.373Z,22.95
2019-03-04T04:49:32.987Z,22.45
2019-03-04T04:52:04.323Z,22.95
2019-03-04T04:54:36.688Z,22.55
2019-03-04T04:57:09.061Z,23.25
2019-03-04T04:59:40.308Z,22.85
2019-03-04T05:02:13.625Z,23.02
2019-03-04T05:04:45.265Z,23.30
2019-03-04T05:07:16.507Z,22.35
2019-03-04T05:09:53.390Z,23.30
2019-03-04T05:12:24.832Z,21.95
2019-03-04T05:14:56.195Z,22.15
2019-03-04T05:17:27.339Z,23.10
2019-03-04T05:19:58.989Z,23.80
2019-03-04T05:22:30.235Z,25.08
2019-03-04T05:25:02.715Z,22.32
2019-03-04T05:27:34.134Z,21.97
2019-03-04T05:30:08.997Z,23.83
2019-03-04T05:32:40.322Z,22.65
2019-03-04T05:35:12.073Z,24.45
2019-03-04T05:37:43.630Z,23.25
2019-03-04T05:40:19.571Z,23.40
2019-03-04T05:42:50.760Z,24.02
2019-03-04T05:45:22.355Z,24.20
2019-03-04T05:47:54.073Z,23.67
2019-03-04T05:50:26.653Z,22.62
2019-03-04T05:53:01.091Z,22.30
2019-03-04T05:55:32.465Z,24.80
2019-03-04T05:58:03.980Z,22.67
2019-03-04T06:00:40.453Z,22.45
2019-03-04T06:03:19.679Z,22.90
2019-03-04T06:05:53.483Z,22.85
2019-03-04T06:08:26.010Z,22.67
2019-03-04T06:10:57.718Z,23.27
2019-03-04T06:13:29.844Z,24.80
2019-03-04T06:16:01.352Z,24.07
2019-03-04T06:18:33.830Z,25.02
2019-03-04T06:21:05.326Z,21.37
2019-03-04T06:23:36.944Z,24.27
2019-03-04T06:26:11.301Z,23.80
2019-03-04T06:28:43.934Z,22.98
2019-03-04T06:31:15.724Z,23.35
2019-03-04T06:33:48.584Z,24.25
2019-03-04T06:36:20.233Z,27.90
2019-03-04T06:38:51.569Z,26.07
2019-03-04T06:41:23.924Z,25.32
2019-03-04T06:43:55.302Z,23.00
2019-03-04T06:46:26.752Z,22.32
2019-03-04T06:48:59.637Z,22.77
2019-03-04T06:51:34.857Z,22.53
2019-03-04T06:54:11.965Z,20.72
2019-03-04T06:57:00.445Z,22.32
2019-03-04T06:59:37.499Z,20.35
2019-03-04T07:02:27.446Z,21.25
2019-03-04T07:05:27.852Z,21.93
2019-03-04T07:08:01.010Z,78.67
2019-03-04T07:10:32.258Z,23.27
2019-03-04T07:13:03.802Z,21.52
2019-03-04T07:15:35.457Z,21.95
2019-03-04T07:18:06.918Z,22.95
2019-03-04T07:20:52.601Z,22.58
2019-03-04T07:23:24.177Z,21.27
2019-03-04T07:25:58.081Z,21.27
2019-03-04T07:28:32.534Z,19.85
2019-03-04T07:31:04.450Z,21.42
2019-03-04T07:33:37.372Z,21.97
2019-03-04T07:36:09.517Z,20.82
2019-03-04T07:38:46.810Z,20.55
2019-03-04T07:41:18.375Z,20.85
2019-03-04T07:43:50.926Z,21.27
2019-03-04T07:46:25.047Z,20.65
2019-03-04T07:48:58.542Z,19.85
2019-03-04T07:51:30.306Z,19.57
2019-03-04T07:54:04.355Z,20.12
2019-03-04T07:56:41.725Z,21.90
2019-03-04T07:59:15.515Z,20.90
2019-03-04T08:01:47.069Z,23.83
2019-03-04T08:04:19.701Z,21.12
2019-03-04T08:06:51.180Z,20.97
2019-03-04T08:09:29.439Z,28.32
2019-03-04T08:12:27.902Z,18.82
2019-03-04T08:14:59.470Z,19.77
2019-03-04T08:17:31.462Z,19.10
2019-03-04T08:22:36.591Z,19.00
2019-03-04T08:25:09.937Z,18.15
2019-03-04T08:27:43.291Z,17.90
2019-03-04T08:30:18.192Z,17.82
2019-03-04T08:35:25.960Z,18.60
2019-03-04T08:37:59.409Z,18.50
2019-03-04T08:40:31.471Z,18.80
2019-03-04T08:43:02.962Z,18.50
2019-03-04T08:45:35.308Z,16.80
2019-03-04T08:48:06.785Z,17.62
2019-03-04T08:50:38.357Z,16.27
2019-03-04T08:53:11.164Z,16.82
2019-03-04T08:55:45.216Z,16.17
2019-03-04T08:58:17.208Z,16.83
2019-03-04T09:00:50.076Z,15.13
2019-03-04T09:03:25.877Z,17.15
2019-03-04T09:06:00.959Z,15.28
2019-03-04T09:08:32.646Z,22.22
2019-03-04T09:11:10.520Z,14.47
2019-03-04T09:13:42.031Z,15.98
2019-03-04T09:16:14.539Z,15.18
2019-03-04T09:18:45.919Z,15.83
2019-03-04T09:21:18.729Z,15.60
2019-03-04T09:23:50.846Z,16.67
2019-03-04T09:26:23.477Z,15.30
2019-03-04T09:28:56.011Z,15.68
2019-03-04T09:31:28.474Z,15.90
2019-03-04T09:33:59.940Z,15.28
2019-03-04T09:36:33.086Z,15.60
2019-03-04T09:39:06.769Z,16.57
2019-03-04T09:41:39.821Z,16.42
2019-03-04T09:44:11.062Z,17.00
2019-03-04T09:46:44.913Z,16.80
2019-03-04T09:49:16.647Z,16.65
2019-03-04T09:54:26.903Z,16.97
2019-03-04T09:56:59.124Z,15.30
2019-03-04T09:59:31.551Z,15.20
2019-03-04T10:02:11.578Z,16.25
2019-03-04T10:04:47.091Z,15.78
2019-03-04T10:07:41.612Z,17.32
2019-03-04T10:13:46.091Z,16.25
2019-03-04T10:16:20.921Z,17.60
2019-03-04T10:19:06.832Z,17.95
2019-03-04T10:21:45.692Z,17.50
2019-03-04T10:24:24.662Z,17.87
2019-03-04T10:27:11.787Z,18.90
2019-03-04T10:29:54.463Z,18.02
2019-03-04T10:33:14.122Z,22.30
2019-03-04T10:35:58.756Z,23.62
2019-03-04T10:38:34.613Z,19.85
2019-03-04T10:41:31.977Z,18.75
2019-03-04T10:44:37.597Z,17.67
2019-03-04T10:47:06.477Z,17.52
2019-03-04T10:49:38.082Z,19.62
2019-03-04T10:52:09.405Z,19.23
2019-03-04T10:54:45.259Z,19.45
2019-03-04T10:57:17.715Z,21.05
2019-03-04T10:59:50.601Z,20.80
2019-03-04T11:02:22.007Z,22.22
2019-03-04T11:04:53.566Z,22.48
2019-03-04T11:07:27.954Z,22.45
2019-03-04T11:09:59.845Z,22.32
2019-03-04T11:12:32.846Z,19.98
2019-03-04T11:15:13.064Z,20.95
2019-03-04T11:17:46.307Z,19.50
2019-03-04T11:20:17.755Z,19.10
2019-03-04T11:22:49.520Z,19.85
2019-03-04T11:25:21.300Z,20.75
2019-03-04T11:27:53.885Z,21.17
2019-03-04T11:30:34.567Z,19.73
2019-03-04T11:33:06.356Z,19.50
2019-03-04T11:35:43.723Z,39.83
2019-03-04T11:38:40.023Z,21.40
2019-03-04T11:41:20.590Z,20.32
2019-03-04T11:43:52.781Z,19.85
2019-03-04T11:46:24.943Z,20.02
2019-03-04T11:48:57.455Z,20.15
2019-03-04T11:51:28.836Z,21.15
2019-03-04T11:54:03.519Z,21.95
2019-03-04T11:56:35.272Z,20.85
2019-03-04T11:59:13.092Z,20.12
2019-03-04T12:01:50.050Z,20.68
2019-03-04T12:04:22.846Z,21.12
2019-03-04T12:06:54.648Z,19.98
2019-03-04T12:09:29.072Z,21.93
2019-03-04T12:12:00.570Z,20.35
2019-03-04T12:14:33.971Z,19.70
2019-03-04T12:17:05.371Z,20.10
2019-03-04T12:19:37.257Z,19.30
2019-03-04T12:22:09.598Z,21.33
2019-03-04T12:24:42.766Z,20.23
2019-03-04T12:27:14.477Z,20.13
2019-03-04T12:29:46.460Z,20.32
2019-03-04T12:32:20.408Z,22.48
2019-03-04T12:37:25.723Z,19.73
2019-03-04T12:39:58.359Z,22.05
2019-03-04T12:42:30.781Z,21.87
2019-03-04T12:45:07.524Z,21.97
2019-03-04T12:47:39.063Z,21.73
2019-03-04T12:50:24.057Z,20.35
2019-03-04T12:52:58.457Z,20.77
2019-03-04T12:55:33.045Z,20.27
2019-03-04T12:58:04.915Z,19.32
2019-03-04T13:00:38.356Z,19.20
2019-03-04T13:03:18.816Z,17.98
2019-03-04T13:05:56.573Z,18.90
2019-03-04T13:08:29.902Z,19.98
2019-03-04T13:11:02.282Z,19.70
2019-03-04T13:13:34.831Z,19.25
2019-03-04T13:16:06.598Z,19.57
2019-03-04T13:18:40.582Z,20.37
2019-03-04T13:21:15.877Z,20.23
2019-03-04T13:23:48.228Z,22.90
2019-03-04T13:26:29.607Z,21.35
2019-03-04T13:29:01.515Z,22.25
2019-03-04T13:31:34.042Z,22.10
2019-03-04T13:34:07.600Z,21.62
2019-03-04T13:36:46.287Z,22.77
2019-03-04T13:39:18.135Z,23.02
2019-03-04T13:41:50.850Z,24.87
2019-03-04T13:44:27.567Z,22.30
2019-03-04T13:46:59.644Z,23.65
2019-03-04T13:49:46.058Z,39.80
2019-03-04T13:52:20.467Z,24.12
2019-03-04T13:54:55.717Z,23.27
2019-03-04T13:57:27.151Z,21.25
2019-03-04T13:59:59.973Z,21.27
2019-03-04T14:02:31.840Z,21.87
2019-03-04T14:05:11.650Z,23.80
2019-03-04T14:07:46.698Z,23.50
2019-03-04T14:10:25.852Z,22.42
2019-03-04T14:13:01.269Z,24.25
2019-03-04T14:15:41.118Z,21.25
2019-03-04T14:18:15.540Z,22.95
2019-03-04T14:20:46.995Z,22.42
2019-03-04T14:23:18.390Z,22.75
2019-03-04T14:25:49.932Z,24.60
2019-03-04T14:28:22.544Z,23.77
2019-03-04T14:30:57.110Z,23.77
2019-03-04T14:33:29.011Z,22.58
2019-03-04T14:36:00.524Z,21.87
2019-03-04T14:38:34.724Z,21.75
2019-03-04T14:41:06.444Z,21.93
2019-03-04T14:43:39.169Z,23.75
2019-03-04T14:46:17.784Z,22.98
2019-03-04T14:48:49.524Z,20.70
2019-03-04T14:51:23.765Z,20.12
2019-03-04T14:53:58.316Z,20.57
2019-03-04T14:59:10.225Z,20.30
2019-03-04T15:01:38.273Z,18.30
2019-03-04T15:04:12.548Z,19.85
2019-03-04T15:06:45.759Z,19.98
2019-03-04T15:09:18.864Z,23.15
2019-03-04T15:11:51.537Z,23.40
2019-03-04T15:14:25.372Z,25.65
2019-03-04T15:17:03.301Z,22.32
2019-03-04T15:19:34.062Z,22.73
2019-03-04T15:22:08.318Z,23.65
2019-03-04T15:24:40.250Z,23.07
2019-03-04T15:27:14.005Z,22.65
2019-03-04T15:29:45.385Z,23.02
2019-03-04T15:32:22.584Z,21.68
2019-03-04T15:34:54.495Z,22.25
2019-03-04T15:37:26.928Z,24.60
2019-03-04T15:39:59.668Z,21.95
2019-03-04T15:42:32.399Z,24.50
2019-03-04T15:45:03.947Z,22.55
2019-03-04T15:47:36.715Z,23.55
2019-03-04T15:50:11.357Z,22.45
2019-03-04T15:52:45.237Z,23.57
2019-03-04T15:55:16.642Z,23.03
2019-03-04T15:57:50.334Z,22.48
2019-03-04T16:00:23.267Z,23.02
2019-03-04T16:02:54.765Z,23.85
2019-03-04T16:05:27.047Z,23.73
2019-03-04T16:08:07.194Z,23.60
2019-03-04T16:10:35.075Z,25.00
2019-03-04T16:13:08.047Z,26.00
2019-03-04T16:15:46.978Z,26.55
2019-03-04T16:18:18.245Z,25.85
2019-03-04T16:20:51.410Z,24.80
2019-03-04T16:23:25.595Z,24.60
2019-03-04T16:25:59.065Z,25.50
2019-03-04T16:28:31.069Z,24.70
2019-03-04T16:31:02.596Z,23.85
2019-03-04T16:33:34.383Z,24.47
2019-03-04T16:36:12.492Z,24.32
2019-03-04T16:38:45.232Z,25.52
2019-03-04T16:41:17.567Z,28.62
2019-03-04T16:43:49.162Z,30.15
2019-03-04T16:46:20.739Z,25.65
2019-03-04T16:48:52.166Z,24.85
2019-03-04T16:51:24.358Z,24.10
2019-03-04T16:53:56.814Z,24.37
2019-03-04T16:56:30.231Z,24.37
2019-03-04T16:59:01.531Z,24.03
2019-03-04T17:01:33.911Z,24.07
2019-03-04T17:04:05.547Z,26.90
2019-03-04T17:06:37.325Z,24.85
2019-03-04T17:09:17.952Z,25.23
2019-03-04T17:11:49.147Z,25.92
2019-03-04T17:14:22.868Z,25.27
2019-03-04T17:16:58.567Z,24.27
2019-03-04T17:19:31.006Z,24.23
2019-03-04T17:22:02.624Z,24.12
2019-03-04T17:24:34.205Z,23.80
2019-03-04T17:27:06.897Z,24.32
2019-03-04T17:29:38.449Z,25.08
2019-03-04T17:32:10.005Z,25.15
2019-03-04T17:34:42.766Z,24.47
2019-03-04T17:37:14.831Z,25.37
2019-03-04T17:39:48.142Z,24.47
2019-03-04T17:42:20.753Z,24.90
2019-03-04T17:44:53.399Z,25.17
2019-03-04T17:47:26.133Z,26.07
2019-03-04T17:49:57.670Z,23.65
2019-03-04T17:52:29.501Z,24.23
2019-03-04T17:55:01.158Z,25.75
2019-03-04T17:57:34.189Z,24.02
2019-03-04T18:00:14.503Z,25.32
2019-03-04T18:02:46.334Z,23.45
2019-03-04T18:05:17.763Z,25.30
2019-03-04T18:07:49.467Z,25.17
2019-03-04T18:10:20.904Z,25.20
2019-03-04T18:13:06.833Z,26.37
2019-03-04T18:15:40.526Z,24.30
2019-03-04T18:18:13.658Z,24.18
2019-03-04T18:20:45.047Z,25.50
2019-03-04T18:23:16.449Z,24.75
2019-03-04T18:25:58.315Z,25.68
2019-03-04T18:28:46.824Z,25.97
2019-03-04T18:31:43.041Z,27.13
2019-03-04T18:34:45.142Z,27.30
2019-03-04T18:37:40.451Z,28.65
2019-03-04T18:40:21.454Z,27.93
2019-03-04T18:43:08.263Z,28.95
2019-03-04T18:45:47.926Z,27.95
2019-03-04T18:48:40.682Z,29.18
2019-03-04T18:51:12.145Z,28.57
2019-03-04T18:53:45.243Z,27.82
2019-03-04T18:56:21.968Z,28.65
2019-03-04T18:58:50.476Z,30.68
2019-03-04T19:01:21.810Z,30.27
2019-03-04T19:03:53.548Z,28.92
2019-03-04T19:06:25.200Z,31.00
2019-03-04T19:08:58.111Z,31.62
2019-03-04T19:11:29.578Z,31.15
2019-03-04T19:14:01.323Z,32.10
2019-03-04T19:16:32.577Z,31.60
2019-03-04T19:19:04.376Z,33.25
2019-03-04T19:21:37.149Z,33.00
2019-03-04T19:24:15.651Z,33.05
2019-03-04T19:26:47.294Z,30.82
2019-03-04T19:29:20.520Z,31.35
2019-03-04T19:31:52.273Z,32.25
2019-03-04T19:34:23.791Z,31.80
2019-03-04T19:36:55.765Z,32.28
2019-03-04T19:39:29.080Z,32.65
2019-03-04T19:42:01.546Z,33.07
2019-03-04T19:44:33.745Z,31.00
2019-03-04T19:47:05.441Z,30.92
2019-03-04T19:49:38.031Z,31.93
2019-03-04T19:52:09.681Z,28.57
2019-03-04T19:54:42.675Z,31.37
2019-03-04T19:57:15.282Z,31.20
2019-03-04T19:59:46.724Z,32.48
2019-03-04T20:02:18.222Z,33.10
2019-03-04T20:04:50.448Z,32.67
2019-03-04T20:07:22.352Z,32.30
2019-03-04T20:09:54.161Z,32.45
2019-03-04T20:12:28.155Z,33.13
2019-03-04T20:15:00.650Z,32.15
2019-03-04T20:17:34.653Z,30.02
2019-03-04T20:20:12.669Z,30.48
2019-03-04T20:22:44.321Z,29.57
2019-03-04T20:25:17.160Z,29.57
2019-03-04T20:27:49.536Z,29.18
2019-03-04T20:30:25.603Z,29.85
2019-03-04T20:32:57.091Z,31.25
2019-03-04T20:35:30.195Z,31.35
2019-03-04T20:38:10.736Z,29.95
2019-03-04T20:40:42.398Z,30.17
2019-03-04T20:43:18.618Z,31.30
2019-03-04T20:45:53.000Z,29.48
2019-03-04T20:48:25.025Z,29.92
2019-03-04T20:50:58.251Z,29.57
2019-03-04T20:53:29.527Z,29.40
2019-03-04T20:56:01.063Z,29.05
2019-03-04T20:58:38.288Z,29.75
2019-03-04T21:01:10.738Z,29.70
2019-03-04T21:03:45.866Z,29.05
2019-03-04T21:06:24.059Z,27.50
2019-03-04T21:09:04.828Z,27.20
2019-03-04T21:11:37.610Z,26.80
2019-03-04T21:14:08.889Z,27.60
2019-03-04T21:16:40.218Z,29.30
2019-03-04T21:19:12.963Z,26.12
2019-03-04T21:21:44.999Z,27.27
2019-03-04T21:24:23.991Z,27.50
2019-03-04T21:26:56.471Z,26.68
2019-03-04T21:29:38.734Z,28.55
2019-03-04T21:32:29.689Z,26.90
2019-03-04T21:35:29.402Z,27.70
2019-03-04T21:38:11.657Z,28.23
2019-03-04T21:40:46.762Z,27.62
2019-03-04T21:43:21.373Z,28.47
2019-03-04T21:46:31.231Z,27.22
2019-03-04T21:49:07.005Z,27.27
2019-03-04T21:51:50.586Z,26.48
2019-03-04T21:54:22.136Z,27.05
2019-03-04T21:59:40.823Z,25.77
2019-03-04T22:02:15.250Z,26.95
2019-03-04T22:04:46.345Z,27.30
2019-03-04T22:07:17.848Z,26.80
2019-03-04T22:09:52.974Z,26.35
2019-03-04T22:12:24.633Z,25.27
2019-03-04T22:14:56.335Z,25.40
2019-03-04T22:17:28.790Z,28.00
2019-03-04T22:20:00.885Z,27.30
2019-03-04T22:22:32.751Z,25.52
2019-03-04T22:25:06.571Z,24.80
2019-03-04T22:27:41.243Z,26.02
2019-03-04T22:30:17.241Z,24.65
2019-03-04T22:32:51.011Z,24.67
2019-03-04T22:37:54.488Z,24.95
2019-03-04T22:40:29.060Z,26.17
2019-03-04T22:43:00.331Z,22.20
2019-03-04T22:45:31.786Z,25.85
2019-03-04T22:48:03.955Z,25.90
2019-03-04T22:50:35.391Z,26.85
2019-03-04T22:53:07.270Z,25.02
2019-03-04T22:55:39.979Z,25.32
2019-03-04T22:58:11.199Z,26.20
2019-03-04T23:00:47.624Z,27.45
2019-03-04T23:03:27.064Z,25.32
2019-03-04T23:06:21.147Z,23.77
2019-03-04T23:08:52.607Z,25.23
2019-03-04T23:11:27.261Z,27.37
2019-03-04T23:14:07.027Z,26.50
2019-03-04T23:16:41.771Z,27.40
2019-03-04T23:19:13.564Z,25.08
2019-03-04T23:21:44.963Z,26.85
2019-03-04T23:24:16.447Z,26.82
2019-03-04T23:26:47.772Z,28.05
2019-03-04T23:29:20.698Z,27.95
2019-03-04T23:31:52.678Z,26.45
2019-03-04T23:34:24.114Z,28.40
2019-03-04T23:36:55.720Z,29.75
2019-03-04T23:39:27.345Z,25.90
2019-03-04T23:41:59.637Z,30.65
2019-03-04T23:44:30.871Z,29.48
2019-03-04T23:47:07.422Z,30.85
2019-03-04T23:49:41.535Z,30.65
2019-03-04T23:52:13.815Z,28.05
2019-03-04T23:54:45.347Z,31.50
2019-03-04T23:57:16.613Z,29.60
2019-03-04T23:59:48.102Z,29.18
